Time;durP1;ratioP1;P1;durP2;ratioP2;P2;SDS_P1;SDS_P2;PMS_P1;PMS_P2;Temp;Humidity;BMP_temperature;BMP_pressure;BME280_temperature;BME280_humidity;BME280_pressure;Samples;Min_cycle;Max_cycle;Signal;HPM_P1;HPM_P2
2022/02/23 00:01:31;;;;;;;26.48;22.70;;;;;;;11.00;59.11;101413.49;1688642;83;21039;-72
2022/02/23 00:04:02;;;;;;;30.68;23.32;;;;;;;11.01;58.96;101420.41;1688714;83;20992;-72
2022/02/23 00:06:30;;;;;;;31.68;24.18;;;;;;;11.03;58.79;101431.66;1688632;83;20976;-69
2022/02/23 00:08:57;;;;;;;29.27;22.60;;;;;;;11.04;58.61;101437.74;1688651;83;21016;-72
2022/02/23 00:11:23;;;;;;;29.60;24.00;;;;;;;11.02;58.63;101435.17;1688680;85;21008;-70
2022/02/23 00:13:50;;;;;;;30.15;22.85;;;;;;;11.04;58.57;101439.91;1688671;83;21027;-70
2022/02/23 00:16:16;;;;;;;32.08;24.45;;;;;;;11.02;58.44;101440.37;1688679;83;21004;-73
2022/02/23 00:18:43;;;;;;;31.07;23.42;;;;;;;10.98;58.43;101441.30;1688786;83;20957;-71
2022/02/23 00:21:09;;;;;;;27.45;22.02;;;;;;;10.92;58.46;101435.30;1688627;83;20963;-76
2022/02/23 00:23:36;;;;;;;26.57;21.97;;;;;;;10.85;58.51;101438.41;1649114;85;21578;-69
2022/02/23 00:26:02;;;;;;;27.22;21.65;;;;;;;10.81;58.68;101435.42;1648935;86;21497;-70
2022/02/23 00:28:29;;;;;;;29.92;20.92;;;;;;;10.78;58.58;101438.05;1650426;86;21001;-72
2022/02/23 00:30:55;;;;;;;26.40;21.33;;;;;;;10.76;58.53;101445.02;1639784;86;21037;-69
2022/02/23 00:33:22;;;;;;;29.37;21.75;;;;;;;10.77;58.66;101449.36;1647862;86;21450;-73
2022/02/23 00:35:48;;;;;;;29.00;21.27;;;;;;;10.76;58.68;101460.63;1650184;86;21010;-72
2022/02/23 00:38:14;;;;;;;26.68;21.62;;;;;;;10.74;58.62;101463.69;1650229;86;21038;-71
2022/02/23 00:40:41;;;;;;;26.70;21.07;;;;;;;10.75;58.66;101466.73;1646064;86;21018;-69
2022/02/23 00:43:08;;;;;;;25.80;20.55;;;;;;;10.78;58.78;101469.75;1637297;86;20986;-71
2022/02/23 00:45:36;;;;;;;28.83;20.72;;;;;;;10.76;58.11;101469.74;1650217;86;21518;-68
2022/02/23 00:48:03;;;;;;;24.70;19.05;;;;;;;10.73;57.87;101465.89;1650204;86;20943;-71
2022/02/23 00:50:30;;;;;;;23.07;18.73;;;;;;;10.72;57.80;101466.75;1647899;86;21014;-71
2022/02/23 00:52:57;;;;;;;25.40;18.95;;;;;;;10.73;57.11;101465.89;1649620;86;21014;-70
2022/02/23 00:55:24;;;;;;;22.48;18.02;;;;;;;10.75;56.28;101471.06;1649867;86;21005;-71
2022/02/23 00:57:51;;;;;;;22.52;17.30;;;;;;;10.77;56.14;101474.08;1650250;86;20962;-70
2022/02/23 01:00:19;;;;;;;21.10;17.80;;;;;;;10.81;55.95;101480.98;1644476;86;21497;-71
2022/02/23 01:02:46;;;;;;;21.62;17.55;;;;;;;10.84;55.55;101484.83;1646907;86;21030;-69
2022/02/23 01:05:13;;;;;;;22.55;17.80;;;;;;;10.85;55.27;101485.70;1647213;86;21550;-69
2022/02/23 01:07:40;;;;;;;22.60;18.15;;;;;;;10.87;55.12;101487.41;1648522;86;21153;-71
2022/02/23 01:10:09;;;;;;;24.35;17.75;;;;;;;10.89;55.05;101485.66;1650322;86;21009;-74
2022/02/23 01:12:37;;;;;;;21.10;16.85;;;;;;;10.88;54.59;101493.03;1650252;86;20998;-72
2022/02/23 01:15:05;;;;;;;19.27;16.27;;;;;;;10.84;54.11;101491.34;1646086;86;20986;-71
2022/02/23 01:17:34;;;;;;;22.22;16.93;;;;;;;10.81;54.27;101497.91;1634009;88;20986;-71
2022/02/23 01:20:01;;;;;;;23.12;16.05;;;;;;;10.80;54.42;101506.58;1650342;86;21580;-69
2022/02/23 01:22:28;;;;;;;19.77;14.93;;;;;;;10.80;54.25;101510.48;1649438;85;21084;-70
2022/02/23 01:24:55;;;;;;;20.77;15.50;;;;;;;10.84;54.17;101516.08;1647129;86;21006;-68
2022/02/23 01:27:22;;;;;;;18.60;14.35;;;;;;;10.85;53.65;101513.91;1636485;86;21447;-74
2022/02/23 01:29:49;;;;;;;20.82;13.75;;;;;;;10.86;53.45;101514.31;1650200;85;21038;-70
2022/02/23 01:32:16;;;;;;;17.17;14.03;;;;;;;10.89;53.31;101514.73;1648354;86;20997;-68
2022/02/23 01:34:43;;;;;;;19.27;14.30;;;;;;;10.90;52.82;101518.61;1647266;86;21006;-70
2022/02/23 01:37:12;;;;;;;20.12;13.55;;;;;;;10.87;52.69;101517.36;1646771;86;20989;-69
2022/02/23 01:39:39;;;;;;;18.45;13.35;;;;;;;10.87;52.76;101513.89;1647081;86;20942;-69
2022/02/23 01:42:06;;;;;;;16.80;13.18;;;;;;;10.86;52.82;101517.39;1647156;86;21467;-72
2022/02/23 01:44:34;;;;;;;21.65;14.05;;;;;;;10.86;52.68;101516.92;1649700;86;20998;-68
2022/02/23 01:47:01;;;;;;;15.55;12.13;;;;;;;10.84;52.62;101521.28;1650143;86;21051;-68
2022/02/23 01:49:28;;;;;;;18.85;13.65;;;;;;;10.82;52.46;101528.25;1649766;86;20986;-72
2022/02/23 01:51:55;;;;;;;17.92;13.62;;;;;;;10.78;52.38;101533.53;1647221;86;21486;-72
2022/02/23 01:54:23;;;;;;;16.90;12.80;;;;;;;10.71;52.46;101533.15;1646551;86;21045;-69
2022/02/23 01:56:52;;;;;;;15.80;12.37;;;;;;;10.63;52.41;101539.75;1658127;86;20974;-71
2022/02/23 01:59:19;;;;;;;15.58;12.28;;;;;;;10.57;52.56;101542.41;1649438;86;21062;-69
2022/02/23 02:01:46;;;;;;;15.40;11.60;;;;;;;10.55;52.38;101544.16;1647310;86;21557;-68
2022/02/23 02:04:13;;;;;;;13.93;11.08;;;;;;;10.54;52.28;101538.08;1643739;86;21010;-71
2022/02/23 02:06:40;;;;;;;16.05;11.63;;;;;;;10.54;52.29;101547.62;1653628;86;20982;-71
2022/02/23 02:09:09;;;;;;;14.43;11.20;;;;;;;10.56;52.17;101549.77;1640557;86;21482;-71
2022/02/23 02:11:37;;;;;;;14.33;11.00;;;;;;;10.56;52.13;101545.87;1633041;86;21035;-68
2022/02/23 02:14:04;;;;;;;14.30;10.75;;;;;;;10.54;52.01;101560.63;1650002;86;21042;-71
2022/02/23 02:16:31;;;;;;;14.53;10.65;;;;;;;10.53;51.88;101551.12;1648928;86;20994;-71
2022/02/23 02:18:58;;;;;;;14.85;11.33;;;;;;;10.51;51.88;101553.71;1648238;86;20970;-72
2022/02/23 02:21:58;;;;;;;13.72;11.10;;;;;;;10.47;51.92;101558.95;1649081;86;20994;-72
2022/02/23 02:24:28;;;;;;;18.23;11.55;;;;;;;10.41;52.15;101559.88;1539487;92;21089;-69
2022/02/23 02:26:55;;;;;;;14.07;11.40;;;;;;;10.37;52.24;101559.91;1574537;89;21018;-68
2022/02/23 02:29:22;;;;;;;13.78;10.93;;;;;;;10.34;52.43;101557.34;1588297;89;21570;-69
2022/02/23 02:31:51;;;;;;;13.25;10.18;;;;;;;10.32;52.37;101561.70;1609342;87;21061;-73
2022/02/23 02:34:19;;;;;;;15.78;11.30;;;;;;;10.31;52.12;101559.95;1609295;87;21999;-71
2022/02/23 02:36:48;;;;;;;14.98;11.73;;;;;;;10.29;51.77;101572.11;1609290;87;21058;-68
2022/02/23 02:39:18;;;;;;;13.85;10.45;;;;;;;10.25;51.75;101576.91;1609485;87;21029;-68
2022/02/23 02:41:45;;;;;;;14.23;11.15;;;;;;;10.23;51.75;101582.56;1524871;93;21044;-68
2022/02/23 02:44:12;;;;;;;14.63;10.40;;;;;;;10.22;51.90;101580.39;1525913;93;21089;-68
2022/02/23 02:46:39;;;;;;;15.85;10.80;;;;;;;10.24;52.08;101590.34;1517381;94;21021;-71
2022/02/23 02:49:07;;;;;;;12.88;10.23;;;;;;;10.24;51.77;101581.70;1497568;95;21063;-68
2022/02/23 02:51:34;;;;;;;13.15;10.45;;;;;;;10.21;51.75;101586.91;1519475;93;21046;-70
2022/02/23 02:54:01;;;;;;;13.98;10.10;;;;;;;10.19;52.00;101593.86;1468575;95;21121;-68
2022/02/23 02:56:28;;;;;;;14.13;9.65;;;;;;;10.19;51.87;101588.66;1524815;93;21045;-70
2022/02/23 02:58:55;;;;;;;13.72;9.98;;;;;;;10.18;52.03;101594.75;1499932;94;21027;-67
2022/02/23 03:01:23;;;;;;;12.88;9.70;;;;;;;10.18;51.94;101594.75;1504170;94;21018;-68
2022/02/23 03:03:50;;;;;;;11.80;9.13;;;;;;;10.13;51.60;101590.00;1518290;93;21041;-74
2022/02/23 03:06:17;;;;;;;11.48;8.78;;;;;;;10.06;51.69;101594.77;1561488;91;21064;-68
2022/02/23 03:08:45;;;;;;;12.33;8.50;;;;;;;10.04;51.82;101601.72;1561501;91;21063;-70
2022/02/23 03:11:12;;;;;;;14.50;9.48;;;;;;;10.04;51.85;101607.79;1568528;91;21571;-68
2022/02/23 03:13:39;;;;;;;15.50;10.72;;;;;;;10.06;52.45;101607.77;1562633;91;21027;-70
2022/02/23 03:16:07;;;;;;;12.90;9.98;;;;;;;10.06;53.26;101609.07;1568121;91;21067;-68
2022/02/23 03:18:34;;;;;;;12.03;9.35;;;;;;;10.04;53.06;101609.52;1561360;91;21008;-70
2022/02/23 03:21:01;;;;;;;12.00;9.28;;;;;;;10.00;53.06;101615.61;1561185;91;21016;-70
2022/02/23 03:23:28;;;;;;;12.07;9.93;;;;;;;9.98;52.98;101625.16;1591514;89;21080;-70
2022/02/23 03:25:55;;;;;;;13.20;9.85;;;;;;;9.92;53.04;101622.59;1596034;89;21185;-67
2022/02/23 03:28:22;;;;;;;12.78;9.65;;;;;;;9.88;53.05;101626.08;1598048;88;21109;-73
2022/02/23 03:30:49;;;;;;;15.10;9.95;;;;;;;9.86;53.12;101628.70;1597387;88;21012;-70
2022/02/23 03:33:16;;;;;;;12.68;9.00;;;;;;;9.84;52.99;101631.73;1597071;88;21021;-67
2022/02/23 03:35:44;;;;;;;14.05;10.32;;;;;;;9.80;53.00;101632.20;1596004;88;21029;-70
2022/02/23 03:38:11;;;;;;;15.50;10.08;;;;;;;9.79;52.96;101632.19;1604455;88;21031;-70
2022/02/23 03:40:38;;;;;;;17.57;11.10;;;;;;;9.75;53.16;101633.06;1632472;86;21554;-71
2022/02/23 03:43:06;;;;;;;14.40;9.30;;;;;;;9.73;53.20;101636.11;1620220;88;21016;-68
2022/02/23 03:45:34;;;;;;;12.70;9.28;;;;;;;9.67;52.94;101633.11;1625752;87;21048;-70
2022/02/23 03:48:01;;;;;;;16.52;9.58;;;;;;;9.64;53.11;101633.11;1627782;87;20993;-68
2022/02/23 03:50:28;;;;;;;10.65;8.53;;;;;;;9.61;53.05;101640.94;1646252;85;21006;-70
2022/02/23 03:52:55;;;;;;;12.07;8.85;;;;;;;9.58;53.20;101647.42;1633518;86;20998;-66
2022/02/23 03:55:22;;;;;;;10.55;8.55;;;;;;;9.57;53.18;101647.02;1633515;86;20998;-73
2022/02/23 03:57:50;;;;;;;12.55;8.90;;;;;;;9.57;53.09;101643.55;1633616;87;20997;-68
2022/02/23 04:00:17;;;;;;;12.40;8.60;;;;;;;9.56;52.80;101647.87;1633119;88;21021;-68
2022/02/23 04:02:44;;;;;;;9.88;7.97;;;;;;;9.51;52.82;101658.73;1633551;86;20997;-69
2022/02/23 04:05:11;;;;;;;10.98;8.68;;;;;;;9.46;52.86;101656.56;1633456;86;21057;-68
2022/02/23 04:07:39;;;;;;;14.35;8.98;;;;;;;9.46;52.80;101661.76;1632010;86;20986;-70
2022/02/23 04:10:07;;;;;;;11.12;8.88;;;;;;;9.41;52.99;101660.92;1633628;86;21034;-72
2022/02/23 04:12:34;;;;;;;13.35;8.58;;;;;;;9.38;53.37;101670.44;1633373;86;21030;-69
2022/02/23 04:15:01;;;;;;;9.38;8.30;;;;;;;9.33;53.35;101675.67;1633550;86;21005;-68
2022/02/23 04:17:28;;;;;;;12.63;9.58;;;;;;;9.27;53.35;101680.87;1632561;86;21025;-72
2022/02/23 04:19:55;;;;;;;13.18;9.08;;;;;;;9.21;53.36;101688.64;1632669;88;20958;-72
2022/02/23 04:22:24;;;;;;;14.93;9.48;;;;;;;9.15;53.59;101695.14;1633493;86;21013;-71
2022/02/23 04:24:50;;;;;;;11.95;9.03;;;;;;;9.09;53.52;101689.12;1625386;87;21599;-70
2022/02/23 04:27:19;;;;;;;11.38;8.78;;;;;;;9.01;53.65;101694.30;1625449;87;20985;-70
2022/02/23 04:29:46;;;;;;;11.18;9.35;;;;;;;8.96;53.81;101702.08;1625910;87;21541;-69
2022/02/23 04:32:13;;;;;;;13.28;9.18;;;;;;;8.93;54.16;101703.39;1625539;87;20989;-69
2022/02/23 04:34:40;;;;;;;12.55;8.53;;;;;;;8.90;53.96;101709.87;1626499;87;20999;-73
2022/02/23 04:37:07;;;;;;;12.50;8.68;;;;;;;8.87;53.97;101712.91;1645285;85;21503;-68
2022/02/23 04:39:35;;;;;;;11.38;8.03;;;;;;;8.84;54.07;101709.87;1633515;86;21021;-74
2022/02/23 04:42:02;;;;;;;10.30;8.03;;;;;;;8.82;54.07;101719.38;1633568;86;21045;-68
2022/02/23 04:44:29;;;;;;;11.85;7.67;;;;;;;8.82;54.17;101718.55;1633585;87;21009;-69
2022/02/23 04:46:56;;;;;;;11.28;8.20;;;;;;;8.78;54.10;101725.44;1633709;88;21476;-72
2022/02/23 04:49:23;;;;;;;12.88;8.70;;;;;;;8.75;54.30;101729.34;1630250;87;20981;-70
2022/02/23 04:51:50;;;;;;;11.88;8.63;;;;;;;8.72;54.41;101734.52;1646489;85;21005;-73
2022/02/23 04:54:17;;;;;;;11.65;8.38;;;;;;;8.67;54.44;101727.59;1633556;86;20967;-70
2022/02/23 04:56:44;;;;;;;10.70;8.13;;;;;;;8.61;54.85;101732.78;1633598;86;21057;-68
2022/02/23 04:59:11;;;;;;;12.28;9.08;;;;;;;8.59;55.03;101739.69;1633617;86;20961;-68
2022/02/23 05:01:39;;;;;;;14.53;10.15;;;;;;;8.56;55.06;101738.37;1633587;86;21006;-71
2022/02/23 05:04:06;;;;;;;16.00;9.00;;;;;;;8.55;55.33;101750.92;1633618;86;21025;-68
2022/02/23 05:06:33;;;;;;;13.30;8.78;;;;;;;8.52;55.50;101756.09;1633583;86;21017;-70
2022/02/23 05:09:00;;;;;;;12.18;8.43;;;;;;;8.51;55.76;101756.97;1633571;86;20993;-73
2022/02/23 05:11:27;;;;;;;9.45;7.55;;;;;;;8.51;55.70;101756.97;1628018;88;21002;-70
2022/02/23 05:13:54;;;;;;;11.43;8.00;;;;;;;8.52;55.82;101765.17;1633675;86;21514;-70
2022/02/23 05:16:23;;;;;;;11.12;8.65;;;;;;;8.50;55.62;101764.30;1633323;86;21026;-70
2022/02/23 05:18:50;;;;;;;10.10;7.87;;;;;;;8.45;55.46;101767.33;1619182;87;21454;-73
2022/02/23 05:21:17;;;;;;;11.08;8.08;;;;;;;8.41;55.54;101769.48;1645593;85;21481;-69
2022/02/23 05:23:44;;;;;;;9.88;8.10;;;;;;;8.42;55.60;101777.68;1634128;86;21030;-71
2022/02/23 05:26:14;;;;;;;11.25;7.47;;;;;;;8.43;55.41;101782.02;1635629;86;21025;-69
2022/02/23 05:28:40;;;;;;;11.70;7.83;;;;;;;8.43;55.24;101785.91;1635691;87;21017;-72
2022/02/23 05:31:07;;;;;;;10.72;9.13;;;;;;;8.40;55.18;101789.78;1634898;86;20990;-72
2022/02/23 05:33:34;;;;;;;9.80;7.42;;;;;;;8.37;55.29;101797.11;1635631;86;20978;-67
2022/02/23 05:36:01;;;;;;;10.72;8.03;;;;;;;8.36;55.44;101801.88;1635673;86;21526;-67
2022/02/23 05:38:29;;;;;;;10.08;7.35;;;;;;;8.38;55.30;101801.88;1635197;86;21046;-69
2022/02/23 05:40:57;;;;;;;10.00;7.72;;;;;;;8.39;55.47;101806.22;1635438;86;20985;-66
2022/02/23 05:43:25;;;;;;;10.40;7.60;;;;;;;8.41;55.14;101809.69;1635477;86;21070;-70
2022/02/23 05:45:52;;;;;;;9.05;7.05;;;;;;;8.42;55.28;101817.88;1635644;86;21479;-68
2022/02/23 05:48:20;;;;;;;9.33;7.47;;;;;;;8.43;55.30;101824.36;1635601;86;21025;-73
2022/02/23 05:50:47;;;;;;;9.38;7.40;;;;;;;8.44;55.54;101814.86;1635443;86;21474;-71
2022/02/23 05:53:14;;;;;;;10.05;6.90;;;;;;;8.47;55.38;101817.48;1632940;86;21021;-69
2022/02/23 05:55:40;;;;;;;8.93;6.87;;;;;;;8.51;55.34;101824.41;1619608;88;21013;-73
2022/02/23 05:58:08;;;;;;;10.60;7.20;;;;;;;8.53;55.36;101826.58;1634968;86;21014;-70
2022/02/23 06:00:37;;;;;;;9.48;7.62;;;;;;;8.54;55.20;101827.88;1635621;86;21025;-67
2022/02/23 06:03:09;;;;;;;10.20;7.28;;;;;;;8.56;54.85;101822.27;1635160;86;21497;-69
2022/02/23 06:05:35;;;;;;;;;;;;;;;8.56;54.60;101826.58;1637897;86;21021;-67
2022/02/23 06:08:02;;;;;;;10.40;7.60;;;;;;;8.57;54.68;101827.87;1635286;86;20096;-70
2022/02/23 06:10:29;;;;;;;10.48;7.25;;;;;;;8.57;54.44;101833.05;1616188;88;20945;-70
2022/02/23 06:12:56;;;;;;;10.88;8.13;;;;;;;8.58;54.52;101832.63;1617624;87;20997;-68
2022/02/23 06:15:23;;;;;;;10.60;7.17;;;;;;;8.60;54.57;101846.48;1635486;86;21001;-71
2022/02/23 06:17:52;;;;;;;8.05;6.65;;;;;;;8.63;54.30;101848.67;1635754;88;21021;-68
2022/02/23 06:20:19;;;;;;;8.33;6.33;;;;;;;8.67;54.20;101850.84;1635710;86;21435;-72
2022/02/23 06:22:47;;;;;;;8.08;6.65;;;;;;;8.78;54.06;101847.83;1635611;86;21033;-68
2022/02/23 06:25:14;;;;;;;10.50;6.42;;;;;;;9.00;53.89;101854.83;1598111;88;21060;-71
2022/02/23 06:27:43;;;;;;;11.10;6.75;;;;;;;9.22;53.41;101858.31;1598125;88;20997;-69
2022/02/23 06:30:10;;;;;;;9.55;6.30;;;;;;;9.38;52.88;101860.05;1598105;88;21006;-70
2022/02/23 06:32:37;;;;;;;8.50;6.37;;;;;;;9.42;52.54;101860.06;1598649;88;21511;-72
2022/02/23 06:35:05;;;;;;;10.95;7.00;;;;;;;9.47;52.76;101863.55;1598508;88;21050;-70
2022/02/23 06:37:33;;;;;;;8.93;7.60;;;;;;;9.59;52.44;101859.64;1598357;88;21005;-67
2022/02/23 06:40:00;;;;;;;10.63;7.78;;;;;;;9.65;52.02;101868.73;1598476;88;21042;-69
2022/02/23 06:42:27;;;;;;;9.25;6.95;;;;;;;9.68;52.04;101868.75;1598061;88;21547;-73
2022/02/23 06:44:54;;;;;;;8.33;6.92;;;;;;;9.72;51.86;101868.30;1598272;88;21069;-71
2022/02/23 06:47:20;;;;;;;10.35;6.75;;;;;;;9.75;51.72;101861.78;1602822;89;21473;-70
2022/02/23 06:49:47;;;;;;;8.80;6.50;;;;;;;9.80;51.80;101871.34;1636640;86;21006;-68
2022/02/23 06:52:16;;;;;;;9.95;6.62;;;;;;;9.89;51.42;101865.69;1650425;86;21026;-68
2022/02/23 06:54:44;;;;;;;9.38;6.78;;;;;;;9.93;51.07;101874.79;1650488;86;21062;-68
2022/02/23 06:57:12;;;;;;;8.60;6.97;;;;;;;9.97;51.25;101879.12;1650481;85;20945;-68
2022/02/23 06:59:39;;;;;;;8.28;6.53;;;;;;;10.03;50.96;101875.63;1651594;86;20999;-69
2022/02/23 07:02:07;;;;;;;8.13;6.62;;;;;;;10.04;50.88;101885.15;1651492;86;21502;-66
2022/02/23 07:04:34;;;;;;;9.80;7.10;;;;;;;10.05;51.00;101889.50;1651448;86;20983;-68
2022/02/23 07:07:02;;;;;;;8.73;6.53;;;;;;;10.03;50.80;101891.23;1650386;86;21510;-71
2022/02/23 07:09:29;;;;;;;17.80;7.22;;;;;;;10.04;50.88;101888.63;1649756;87;21550;-69
2022/02/23 07:11:56;;;;;;;8.23;6.50;;;;;;;10.07;50.82;101891.66;1651806;86;20998;-67
2022/02/23 07:14:23;;;;;;;9.90;7.12;;;;;;;10.07;50.79;101896.86;1647546;86;21030;-69
2022/02/23 07:16:50;;;;;;;10.48;6.72;;;;;;;10.08;50.74;101902.48;1650773;86;21006;-70
2022/02/23 07:19:20;;;;;;;8.38;6.05;;;;;;;10.09;50.77;101904.22;1651014;87;20983;-67
2022/02/23 07:21:46;;;;;;;9.23;6.45;;;;;;;10.08;50.33;101911.58;1651382;86;21046;-67
2022/02/23 07:24:13;;;;;;;7.58;6.15;;;;;;;10.00;50.08;101911.59;1653510;85;21617;-69
2022/02/23 07:26:40;;;;;;;9.35;6.17;;;;;;;9.94;50.18;101914.63;1648384;86;21017;-69
2022/02/23 07:29:07;;;;;;;7.35;5.55;;;;;;;9.92;50.08;101913.34;1647158;86;20998;-67
2022/02/23 07:31:34;;;;;;;8.95;6.00;;;;;;;9.89;50.22;101906.86;1647505;86;21509;-70
2022/02/23 07:34:00;;;;;;;8.23;5.80;;;;;;;9.91;50.29;101905.55;1646754;86;21022;-71
2022/02/23 07:36:27;;;;;;;9.55;6.65;;;;;;;9.96;50.22;101905.09;1647895;86;20998;-68
2022/02/23 07:38:53;;;;;;;7.30;5.85;;;;;;;10.01;50.48;101902.95;1649045;86;20975;-69
2022/02/23 07:41:23;;;;;;;7.03;5.75;;;;;;;10.12;50.42;101902.51;1645919;86;21061;-68
2022/02/23 07:43:50;;;;;;;7.45;5.65;;;;;;;10.24;50.10;101899.88;1646485;86;20997;-69
2022/02/23 07:46:17;;;;;;;7.25;6.28;;;;;;;10.36;49.89;101899.00;1646890;86;21012;-68
2022/02/23 07:48:47;;;;;;;8.93;5.53;;;;;;;10.47;49.65;101894.61;1643555;86;21032;-70
2022/02/23 07:51:16;;;;;;;8.80;5.95;;;;;;;10.59;49.31;101892.00;1650276;86;21002;-72
2022/02/23 07:53:48;;;;;;;9.03;5.95;;;;;;;10.68;49.21;101891.94;1648501;86;20994;-68
2022/02/23 07:56:14;;;;;;;8.13;5.60;;;;;;;10.75;48.93;101893.66;1647774;86;21514;-71
2022/02/23 07:58:41;;;;;;;8.40;5.65;;;;;;;10.82;48.39;101885.39;1646293;86;21477;-72
2022/02/23 08:01:08;;;;;;;8.78;5.85;;;;;;;10.83;48.26;101881.47;1650104;86;21508;-68
2022/02/23 08:03:35;;;;;;;7.25;5.00;;;;;;;10.84;48.34;101888.39;1630893;86;20993;-70
2022/02/23 08:06:02;;;;;;;6.10;4.97;;;;;;;10.87;48.45;101888.39;1649054;86;21005;-68
2022/02/23 08:08:29;;;;;;;8.65;6.10;;;;;;;10.89;48.20;101884.47;1647175;86;21050;-70
2022/02/23 08:10:57;;;;;;;8.25;5.97;;;;;;;10.92;48.32;101890.52;1636330;86;20994;-68
2022/02/23 08:13:23;;;;;;;8.68;6.20;;;;;;;10.97;48.46;101892.67;1650245;86;21054;-70
2022/02/23 08:21:21;;;;;;;7.30;6.08;;;;;;;11.04;48.11;101876.16;1650232;86;21042;-68
2022/02/23 08:23:48;;;;;;;8.70;6.05;;;;;;;11.02;48.06;101875.30;1637343;84;21490;-71
2022/02/23 08:26:14;;;;;;;6.83;5.08;;;;;;;11.00;48.38;101871.84;1650078;86;21471;-72
2022/02/23 08:28:41;;;;;;;6.45;5.47;;;;;;;11.02;48.29;101866.19;1641832;86;21538;-68
2022/02/23 08:31:08;;;;;;;7.33;6.28;;;;;;;11.06;48.24;101863.98;1648841;86;21049;-72
2022/02/23 08:33:34;;;;;;;9.73;5.83;;;;;;;11.12;48.11;101861.34;1649686;86;21053;-69
2022/02/23 08:36:01;;;;;;;7.40;6.10;;;;;;;11.15;47.91;101863.91;1650129;86;21001;-67
2022/02/23 08:38:27;;;;;;;8.45;6.72;;;;;;;11.14;47.96;101858.29;1650306;86;21006;-72
2022/02/23 08:40:54;;;;;;;7.53;6.20;;;;;;;11.19;48.51;101860.41;1637373;86;21001;-71
2022/02/23 08:43:20;;;;;;;7.67;5.75;;;;;;;11.26;48.73;101865.14;1650219;86;20986;-68
2022/02/23 08:45:47;;;;;;;12.75;7.10;;;;;;;11.36;48.26;101866.38;1649970;86;20962;-72
2022/02/23 08:48:14;;;;;;;8.50;6.65;;;;;;;11.43;48.21;101873.28;1647172;86;21006;-69
2022/02/23 08:50:40;;;;;;;7.78;6.08;;;;;;;11.52;48.29;101861.05;1649315;86;21018;-72
2022/02/23 08:53:07;;;;;;;7.70;6.10;;;;;;;11.58;48.02;101861.00;1643844;86;21022;-72
2022/02/23 08:55:34;;;;;;;7.08;5.78;;;;;;;11.62;47.85;101862.70;1636894;86;21003;-69
2022/02/23 08:58:01;;;;;;;8.75;6.60;;;;;;;11.64;48.15;101867.04;1629523;86;20999;-67
2022/02/23 09:00:28;;;;;;;8.48;6.42;;;;;;;11.66;48.15;101860.10;1640623;86;21482;-70
2022/02/23 09:02:54;;;;;;;8.85;6.78;;;;;;;11.73;48.09;101861.76;1636051;85;21453;-73
2022/02/23 09:05:21;;;;;;;8.30;5.97;;;;;;;11.82;47.74;101866.03;1640386;86;21474;-70
2022/02/23 09:07:47;;;;;;;8.80;6.92;;;;;;;11.87;47.55;101867.70;1647199;86;21443;-69
2022/02/23 09:10:14;;;;;;;9.10;6.25;;;;;;;11.90;47.67;101864.21;1650736;86;21019;-71
2022/02/23 09:12:43;;;;;;;10.25;6.75;;;;;;;11.94;47.95;101869.82;1644770;86;21009;-67
2022/02/23 09:15:12;;;;;;;8.88;6.42;;;;;;;11.97;47.63;101872.41;1654094;86;21012;-69
2022/02/23 09:17:41;;;;;;;8.30;6.53;;;;;;;12.01;47.67;101870.20;1641259;86;20982;-68
2022/02/23 09:20:08;;;;;;;9.45;6.50;;;;;;;12.04;47.56;101872.76;1649857;86;20994;-70
2022/02/23 09:22:37;;;;;;;7.60;6.47;;;;;;;12.08;47.53;101877.06;1647864;86;21042;-68
2022/02/23 09:25:05;;;;;;;8.20;6.10;;;;;;;12.11;47.83;101874.44;1646884;84;21085;-71
2022/02/23 09:27:32;;;;;;;12.47;6.83;;;;;;;12.12;47.78;101870.50;1647477;86;20990;-67
2022/02/23 09:29:58;;;;;;;8.03;6.65;;;;;;;12.13;47.24;101870.07;1647205;86;21002;-70
2022/02/23 09:32:24;;;;;;;8.88;7.17;;;;;;;12.10;47.20;101870.09;1647293;86;21014;-72
2022/02/23 09:34:51;;;;;;;8.65;6.92;;;;;;;12.07;47.33;101864.48;1650117;86;21001;-68
2022/02/23 09:37:19;;;;;;;10.55;6.87;;;;;;;12.07;47.58;101863.61;1646093;86;20994;-70
2022/02/23 09:39:45;;;;;;;10.05;6.83;;;;;;;12.09;47.90;101873.16;1650137;86;20998;-74
2022/02/23 09:42:12;;;;;;;10.40;7.65;;;;;;;12.12;48.34;101870.94;1635601;86;20986;-69
2022/02/23 09:44:41;;;;;;;13.03;8.85;;;;;;;12.20;48.27;101878.23;1648478;86;20994;-69
2022/02/23 09:47:09;;;;;;;12.10;8.73;;;;;;;12.26;48.13;101878.20;1607787;87;21012;-72
2022/02/23 09:49:36;;;;;;;7.97;6.65;;;;;;;12.29;48.04;101882.06;1604501;87;21511;-72
2022/02/23 09:52:04;;;;;;;12.85;7.67;;;;;;;12.33;48.07;101879.84;1605842;87;21025;-70
2022/02/23 09:54:31;;;;;;;11.40;8.23;;;;;;;12.37;47.57;101869.80;1606239;87;20986;-68
2022/02/23 09:56:58;;;;;;;17.55;9.70;;;;;;;12.37;47.19;101867.19;1608511;87;21069;-69
2022/02/23 09:59:25;;;;;;;21.02;12.00;;;;;;;12.36;46.98;101865.47;1607682;87;21047;-70
2022/02/23 10:01:53;;;;;;;20.17;11.10;;;;;;;12.32;46.65;101858.56;1608085;87;21000;-74
2022/02/23 10:04:22;;;;;;;24.80;14.33;;;;;;;12.32;46.61;101861.17;1607803;87;21643;-67
2022/02/23 10:06:49;;;;;;;15.43;9.98;;;;;;;12.33;46.73;101857.66;1606349;88;21025;-70
2022/02/23 10:09:16;;;;;;;16.67;10.70;;;;;;;12.35;46.45;101862.42;1609676;87;21478;-72
2022/02/23 10:11:46;;;;;;;17.95;11.45;;;;;;;12.40;46.49;101855.85;1608124;87;21452;-70
2022/02/23 10:14:14;;;;;;;22.00;12.82;;;;;;;12.47;46.45;101858.36;1607275;87;20976;-71
2022/02/23 10:16:44;;;;;;;17.92;10.40;;;;;;;12.52;46.39;101859.19;1607578;87;21019;-68
2022/02/23 10:19:22;;;;;;;15.18;10.75;;;;;;;12.59;46.18;101863.43;1590899;89;20994;-68
2022/02/23 10:21:56;;;;;;;12.55;8.75;;;;;;;12.63;45.59;101863.81;1591303;89;21494;-68
2022/02/23 10:24:31;;;;;;;10.00;7.22;;;;;;;12.64;45.51;101872.08;1593199;88;21030;-70
2022/02/23 10:27:07;;;;;;;10.15;7.75;;;;;;;12.65;45.09;101865.96;1609276;88;21519;-70
2022/02/23 10:29:47;;;;;;;8.60;6.40;;;;;;;12.67;45.04;101863.35;1609422;88;21531;-68
2022/02/23 10:32:14;;;;;;;9.10;6.87;;;;;;;12.69;44.70;101865.07;1609439;87;21006;-70
2022/02/23 10:34:48;;;;;;;7.60;6.25;;;;;;;12.68;44.40;101865.06;1603678;89;21032;-68
2022/02/23 10:37:18;;;;;;;6.87;5.75;;;;;;;12.67;44.41;101868.58;1610209;88;21042;-72
2022/02/23 10:39:56;;;;;;;6.25;5.62;;;;;;;12.69;43.69;101868.11;1540273;92;21019;-73
2022/02/23 10:42:26;;;;;;;7.72;5.80;;;;;;;12.74;43.52;101868.47;1533687;92;21113;-71
2022/02/23 10:44:54;;;;;;;6.85;5.30;;;;;;;12.79;43.15;101862.76;1534114;92;21054;-70
2022/02/23 10:47:32;;;;;;;19.20;8.28;;;;;;;12.86;42.87;101859.59;1523222;93;21074;-67
2022/02/23 10:50:13;;;;;;;9.15;5.22;;;;;;;12.92;42.45;101848.62;1533055;93;21097;-67
2022/02/23 10:52:44;;;;;;;9.45;4.78;;;;;;;12.99;42.03;101848.97;1538091;93;21054;-68
2022/02/23 10:55:16;;;;;;;6.97;5.08;;;;;;;13.07;41.90;101841.05;1537750;93;21022;-67
2022/02/23 10:57:56;;;;;;;6.37;4.87;;;;;;;13.14;41.79;101844.00;1537626;93;21090;-70
2022/02/23 11:00:35;;;;;;;6.40;4.97;;;;;;;13.21;41.86;101843.00;1537935;92;21011;-71
2022/02/23 11:03:02;;;;;;;5.85;4.50;;;;;;;13.29;41.84;101839.83;1547739;92;21011;-69
2022/02/23 11:05:31;;;;;;;8.00;5.15;;;;;;;13.35;42.07;101841.50;1539913;92;21027;-68
2022/02/23 11:08:01;;;;;;;6.42;5.12;;;;;;;13.40;41.64;101833.13;1538858;92;21082;-70
2022/02/23 11:10:27;;;;;;;8.65;5.83;;;;;;;13.45;41.26;101836.54;1539179;92;21553;-69
2022/02/23 11:12:57;;;;;;;8.73;5.60;;;;;;;13.50;41.29;101836.00;1539401;92;21035;-68
2022/02/23 11:15:26;;;;;;;8.28;5.95;;;;;;;13.56;41.39;101835.93;1543482;92;21048;-75
2022/02/23 11:17:53;;;;;;;10.53;6.10;;;;;;;13.58;41.72;101827.14;1549350;91;21581;-70
2022/02/23 11:20:27;;;;;;;10.13;7.62;;;;;;;13.61;41.90;101823.19;1549587;91;21009;-68
2022/02/23 11:22:58;;;;;;;9.08;7.37;;;;;;;13.62;42.00;101822.75;1530725;92;21074;-68
2022/02/23 11:25:25;;;;;;;9.20;7.47;;;;;;;13.66;42.15;101823.11;1530864;92;21148;-68
2022/02/23 11:27:59;;;;;;;8.95;7.55;;;;;;;13.69;42.51;101825.66;1528961;94;21086;-73
2022/02/23 11:30:28;;;;;;;9.05;6.08;;;;;;;13.72;42.26;101815.16;1528879;92;21086;-69